sensor_id;sensor_type;location;lat;lon;timestamp;P1;durP1;ratioP1;P2;durP2;ratioP2
2452;SDS011;63678;47.994;7.854;2023-07-22T00:00:23;7.22;;;3.67;;
2452;SDS011;63678;47.994;7.854;2023-07-22T00:02:56;7.82;;;3.60;;
2452;SDS011;63678;47.994;7.854;2023-07-22T00:05:28;6.38;;;3.35;;
2452;SDS011;63678;47.994;7.854;2023-07-22T00:08:01;8.88;;;3.50;;
2452;SDS011;63678;47.994;7.854;2023-07-22T00:10:34;5.83;;;3.37;;
2452;SDS011;63678;47.994;7.854;2023-07-22T00:13:06;6.35;;;3.40;;
2452;SDS011;63678;47.994;7.854;2023-07-22T00:15:39;6.60;;;3.30;;
2452;SDS011;63678;47.994;7.854;2023-07-22T00:18:11;6.28;;;3.00;;
2452;SDS011;63678;47.994;7.854;2023-07-22T00:20:44;6.47;;;3.53;;
2452;SDS011;63678;47.994;7.854;2023-07-22T00:23:16;7.13;;;3.30;;
2452;SDS011;63678;47.994;7.854;2023-07-22T00:25:49;5.70;;;3.10;;
2452;SDS011;63678;47.994;7.854;2023-07-22T00:28:23;7.38;;;3.20;;
2452;SDS011;63678;47.994;7.854;2023-07-22T00:30:56;8.30;;;3.65;;
2452;SDS011;63678;47.994;7.854;2023-07-22T00:33:29;5.13;;;3.00;;
2452;SDS011;63678;47.994;7.854;2023-07-22T00:36:01;6.80;;;3.27;;
2452;SDS011;63678;47.994;7.854;2023-07-22T00:38:34;8.23;;;3.20;;
2452;SDS011;63678;47.994;7.854;2023-07-22T00:41:07;6.70;;;3.30;;
2452;SDS011;63678;47.994;7.854;2023-07-22T00:43:40;7.47;;;3.20;;
2452;SDS011;63678;47.994;7.854;2023-07-22T00:46:12;5.82;;;3.00;;
2452;SDS011;63678;47.994;7.854;2023-07-22T00:48:45;6.40;;;3.17;;
2452;SDS011;63678;47.994;7.854;2023-07-22T00:51:19;7.22;;;3.28;;
2452;SDS011;63678;47.994;7.854;2023-07-22T00:53:54;7.25;;;3.30;;
2452;SDS011;63678;47.994;7.854;2023-07-22T00:56:26;6.85;;;3.10;;
2452;SDS011;63678;47.994;7.854;2023-07-22T00:58:59;6.50;;;3.53;;
2452;SDS011;63678;47.994;7.854;2023-07-22T01:01:32;6.07;;;3.40;;
2452;SDS011;63678;47.994;7.854;2023-07-22T01:04:05;7.50;;;3.40;;
2452;SDS011;63678;47.994;7.854;2023-07-22T01:06:37;6.20;;;3.30;;
2452;SDS011;63678;47.994;7.854;2023-07-22T01:09:10;7.40;;;3.83;;
2452;SDS011;63678;47.994;7.854;2023-07-22T01:11:43;5.65;;;3.28;;
2452;SDS011;63678;47.994;7.854;2023-07-22T01:14:15;6.23;;;3.20;;
2452;SDS011;63678;47.994;7.854;2023-07-22T01:16:47;8.20;;;3.35;;
2452;SDS011;63678;47.994;7.854;2023-07-22T01:19:20;7.07;;;3.38;;
2452;SDS011;63678;47.994;7.854;2023-07-22T01:21:53;6.95;;;3.30;;
2452;SDS011;63678;47.994;7.854;2023-07-22T01:24:26;7.53;;;3.70;;
2452;SDS011;63678;47.994;7.854;2023-07-22T01:27:00;7.83;;;3.17;;
2452;SDS011;63678;47.994;7.854;2023-07-22T01:29:35;6.97;;;3.60;;
2452;SDS011;63678;47.994;7.854;2023-07-22T01:32:07;5.93;;;3.00;;
2452;SDS011;63678;47.994;7.854;2023-07-22T01:34:40;5.22;;;3.00;;
2452;SDS011;63678;47.994;7.854;2023-07-22T01:37:13;6.63;;;3.38;;
2452;SDS011;63678;47.994;7.854;2023-07-22T01:39:46;9.00;;;3.03;;
2452;SDS011;63678;47.994;7.854;2023-07-22T01:42:18;6.53;;;3.28;;
2452;SDS011;63678;47.994;7.854;2023-07-22T01:44:51;7.15;;;3.20;;
2452;SDS011;63678;47.994;7.854;2023-07-22T01:47:24;6.75;;;3.22;;
2452;SDS011;63678;47.994;7.854;2023-07-22T01:49:58;7.22;;;3.72;;
2452;SDS011;63678;47.994;7.854;2023-07-22T01:52:30;5.73;;;2.93;;
2452;SDS011;63678;47.994;7.854;2023-07-22T01:55:03;6.93;;;3.25;;
2452;SDS011;63678;47.994;7.854;2023-07-22T01:57:38;9.20;;;3.30;;
2452;SDS011;63678;47.994;7.854;2023-07-22T02:00:11;6.40;;;3.50;;
2452;SDS011;63678;47.994;7.854;2023-07-22T02:02:44;8.55;;;3.35;;
2452;SDS011;63678;47.994;7.854;2023-07-22T02:05:17;6.67;;;3.30;;
2452;SDS011;63678;47.994;7.854;2023-07-22T02:07:50;6.63;;;3.00;;
2452;SDS011;63678;47.994;7.854;2023-07-22T02:10:23;5.78;;;3.25;;
2452;SDS011;63678;47.994;7.854;2023-07-22T02:12:55;5.45;;;2.83;;
2452;SDS011;63678;47.994;7.854;2023-07-22T02:15:28;5.88;;;3.40;;
2452;SDS011;63678;47.994;7.854;2023-07-22T02:18:01;8.97;;;3.10;;
2452;SDS011;63678;47.994;7.854;2023-07-22T02:20:33;6.60;;;3.30;;
2452;SDS011;63678;47.994;7.854;2023-07-22T02:23:06;6.75;;;3.33;;
2452;SDS011;63678;47.994;7.854;2023-07-22T02:25:41;5.35;;;2.95;;
2452;SDS011;63678;47.994;7.854;2023-07-22T02:28:13;7.10;;;3.50;;
2452;SDS011;63678;47.994;7.854;2023-07-22T02:30:47;6.03;;;3.00;;
2452;SDS011;63678;47.994;7.854;2023-07-22T02:33:22;6.68;;;3.08;;
2452;SDS011;63678;47.994;7.854;2023-07-22T02:35:56;6.28;;;3.20;;
2452;SDS011;63678;47.994;7.854;2023-07-22T02:38:31;6.03;;;2.97;;
2452;SDS011;63678;47.994;7.854;2023-07-22T02:41:04;6.78;;;3.17;;
2452;SDS011;63678;47.994;7.854;2023-07-22T02:43:39;6.00;;;3.07;;
2452;SDS011;63678;47.994;7.854;2023-07-22T02:46:12;6.55;;;3.28;;
2452;SDS011;63678;47.994;7.854;2023-07-22T02:48:44;5.80;;;3.47;;
2452;SDS011;63678;47.994;7.854;2023-07-22T02:51:17;7.13;;;3.20;;
2452;SDS011;63678;47.994;7.854;2023-07-22T02:53:49;7.75;;;3.47;;
2452;SDS011;63678;47.994;7.854;2023-07-22T02:56:21;5.53;;;3.00;;
2452;SDS011;63678;47.994;7.854;2023-07-22T02:58:56;6.13;;;3.00;;
2452;SDS011;63678;47.994;7.854;2023-07-22T03:01:29;6.65;;;2.95;;
2452;SDS011;63678;47.994;7.854;2023-07-22T03:04:01;7.35;;;3.30;;
2452;SDS011;63678;47.994;7.854;2023-07-22T03:06:35;7.88;;;3.53;;
2452;SDS011;63678;47.994;7.854;2023-07-22T03:09:08;8.73;;;3.60;;
2452;SDS011;63678;47.994;7.854;2023-07-22T03:11:40;7.53;;;3.20;;
2452;SDS011;63678;47.994;7.854;2023-07-22T03:14:12;6.47;;;3.15;;
2452;SDS011;63678;47.994;7.854;2023-07-22T03:16:45;5.85;;;3.38;;
2452;SDS011;63678;47.994;7.854;2023-07-22T03:19:18;8.18;;;3.67;;
2452;SDS011;63678;47.994;7.854;2023-07-22T03:21:50;5.83;;;3.03;;
2452;SDS011;63678;47.994;7.854;2023-07-22T03:24:23;6.05;;;3.38;;
2452;SDS011;63678;47.994;7.854;2023-07-22T03:27:18;5.00;;;3.10;;
2452;SDS011;63678;47.994;7.854;2023-07-22T03:29:51;7.13;;;3.10;;
2452;SDS011;63678;47.994;7.854;2023-07-22T03:32:23;6.63;;;3.20;;
2452;SDS011;63678;47.994;7.854;2023-07-22T03:34:55;5.67;;;3.40;;
2452;SDS011;63678;47.994;7.854;2023-07-22T03:37:28;5.60;;;3.00;;
2452;SDS011;63678;47.994;7.854;2023-07-22T03:40:02;6.20;;;3.33;;
2452;SDS011;63678;47.994;7.854;2023-07-22T03:42:42;5.82;;;3.00;;
2452;SDS011;63678;47.994;7.854;2023-07-22T03:45:14;6.65;;;3.25;;
2452;SDS011;63678;47.994;7.854;2023-07-22T03:47:50;6.07;;;2.93;;
2452;SDS011;63678;47.994;7.854;2023-07-22T03:50:28;6.25;;;3.30;;
2452;SDS011;63678;47.994;7.854;2023-07-22T03:53:01;5.55;;;3.15;;
2452;SDS011;63678;47.994;7.854;2023-07-22T03:55:33;6.60;;;2.85;;
2452;SDS011;63678;47.994;7.854;2023-07-22T03:58:05;5.45;;;3.13;;
2452;SDS011;63678;47.994;7.854;2023-07-22T04:00:39;8.47;;;3.10;;
2452;SDS011;63678;47.994;7.854;2023-07-22T04:03:11;5.97;;;2.70;;
2452;SDS011;63678;47.994;7.854;2023-07-22T04:05:44;5.05;;;2.50;;
2452;SDS011;63678;47.994;7.854;2023-07-22T04:08:17;6.57;;;3.35;;
2452;SDS011;63678;47.994;7.854;2023-07-22T04:10:56;6.15;;;2.67;;
2452;SDS011;63678;47.994;7.854;2023-07-22T04:13:29;5.03;;;2.80;;
2452;SDS011;63678;47.994;7.854;2023-07-22T04:16:02;6.03;;;2.67;;
2452;SDS011;63678;47.994;7.854;2023-07-22T04:18:34;6.28;;;3.38;;
2452;SDS011;63678;47.994;7.854;2023-07-22T04:21:07;5.38;;;2.90;;
2452;SDS011;63678;47.994;7.854;2023-07-22T04:23:39;5.53;;;3.13;;
2452;SDS011;63678;47.994;7.854;2023-07-22T04:26:11;4.97;;;2.60;;
2452;SDS011;63678;47.994;7.854;2023-07-22T04:28:44;6.32;;;2.65;;
2452;SDS011;63678;47.994;7.854;2023-07-22T04:31:16;6.07;;;2.90;;
2452;SDS011;63678;47.994;7.854;2023-07-22T04:33:48;6.35;;;2.90;;
2452;SDS011;63678;47.994;7.854;2023-07-22T04:36:21;6.68;;;3.03;;
2452;SDS011;63678;47.994;7.854;2023-07-22T04:38:54;5.10;;;2.73;;
2452;SDS011;63678;47.994;7.854;2023-07-22T04:41:27;5.72;;;2.97;;
2452;SDS011;63678;47.994;7.854;2023-07-22T04:43:59;6.07;;;3.05;;
2452;SDS011;63678;47.994;7.854;2023-07-22T04:46:32;6.95;;;3.05;;
2452;SDS011;63678;47.994;7.854;2023-07-22T04:49:04;5.78;;;2.90;;
2452;SDS011;63678;47.994;7.854;2023-07-22T04:51:37;5.60;;;2.97;;
2452;SDS011;63678;47.994;7.854;2023-07-22T04:54:09;5.70;;;2.90;;
2452;SDS011;63678;47.994;7.854;2023-07-22T04:56:42;7.65;;;3.40;;
2452;SDS011;63678;47.994;7.854;2023-07-22T04:59:14;4.90;;;2.58;;
2452;SDS011;63678;47.994;7.854;2023-07-22T05:01:47;5.93;;;3.20;;
2452;SDS011;63678;47.994;7.854;2023-07-22T05:04:40;5.33;;;2.80;;
2452;SDS011;63678;47.994;7.854;2023-07-22T05:07:13;6.03;;;2.70;;
2452;SDS011;63678;47.994;7.854;2023-07-22T05:09:46;4.90;;;2.67;;
2452;SDS011;63678;47.994;7.854;2023-07-22T05:12:18;6.55;;;2.70;;
2452;SDS011;63678;47.994;7.854;2023-07-22T05:14:51;5.82;;;3.03;;
2452;SDS011;63678;47.994;7.854;2023-07-22T05:17:23;6.20;;;2.80;;
2452;SDS011;63678;47.994;7.854;2023-07-22T05:19:57;5.30;;;2.63;;
2452;SDS011;63678;47.994;7.854;2023-07-22T05:22:30;6.13;;;3.00;;
2452;SDS011;63678;47.994;7.854;2023-07-22T05:25:05;6.13;;;2.67;;
2452;SDS011;63678;47.994;7.854;2023-07-22T05:27:39;5.38;;;2.65;;
2452;SDS011;63678;47.994;7.854;2023-07-22T05:30:12;7.70;;;3.07;;
2452;SDS011;63678;47.994;7.854;2023-07-22T05:33:03;5.18;;;2.80;;
2452;SDS011;63678;47.994;7.854;2023-07-22T05:35:35;6.60;;;3.25;;
2452;SDS011;63678;47.994;7.854;2023-07-22T05:38:08;5.35;;;2.90;;
2452;SDS011;63678;47.994;7.854;2023-07-22T05:40:40;5.60;;;3.08;;
2452;SDS011;63678;47.994;7.854;2023-07-22T05:43:13;5.07;;;2.63;;
2452;SDS011;63678;47.994;7.854;2023-07-22T05:45:45;5.55;;;2.90;;
2452;SDS011;63678;47.994;7.854;2023-07-22T05:48:18;5.53;;;3.17;;
2452;SDS011;63678;47.994;7.854;2023-07-22T05:50:50;6.45;;;2.85;;
2452;SDS011;63678;47.994;7.854;2023-07-22T05:53:23;6.20;;;2.70;;
2452;SDS011;63678;47.994;7.854;2023-07-22T05:55:55;5.80;;;3.00;;
2452;SDS011;63678;47.994;7.854;2023-07-22T05:58:28;4.43;;;2.50;;
2452;SDS011;63678;47.994;7.854;2023-07-22T06:01:00;5.22;;;2.72;;
2452;SDS011;63678;47.994;7.854;2023-07-22T06:03:33;4.38;;;2.40;;
2452;SDS011;63678;47.994;7.854;2023-07-22T06:06:05;5.88;;;2.97;;
2452;SDS011;63678;47.994;7.854;2023-07-22T06:08:39;5.67;;;2.87;;
2452;SDS011;63678;47.994;7.854;2023-07-22T06:11:11;6.63;;;2.53;;
2452;SDS011;63678;47.994;7.854;2023-07-22T06:13:43;5.07;;;2.60;;
2452;SDS011;63678;47.994;7.854;2023-07-22T06:16:16;4.95;;;2.85;;
2452;SDS011;63678;47.994;7.854;2023-07-22T06:18:48;6.03;;;2.50;;
2452;SDS011;63678;47.994;7.854;2023-07-22T06:21:21;5.37;;;2.40;;
2452;SDS011;63678;47.994;7.854;2023-07-22T06:23:53;6.30;;;2.85;;
2452;SDS011;63678;47.994;7.854;2023-07-22T06:26:26;4.50;;;2.40;;
2452;SDS011;63678;47.994;7.854;2023-07-22T06:28:58;4.93;;;2.40;;
2452;SDS011;63678;47.994;7.854;2023-07-22T06:31:31;4.70;;;2.95;;
2452;SDS011;63678;47.994;7.854;2023-07-22T06:34:04;5.43;;;2.80;;
2452;SDS011;63678;47.994;7.854;2023-07-22T06:36:36;5.03;;;2.35;;
2452;SDS011;63678;47.994;7.854;2023-07-22T06:39:09;4.97;;;2.40;;
2452;SDS011;63678;47.994;7.854;2023-07-22T06:41:41;5.60;;;3.00;;
2452;SDS011;63678;47.994;7.854;2023-07-22T06:44:13;5.40;;;2.40;;
2452;SDS011;63678;47.994;7.854;2023-07-22T06:46:46;5.83;;;2.57;;
2452;SDS011;63678;47.994;7.854;2023-07-22T06:49:19;4.95;;;2.50;;
2452;SDS011;63678;47.994;7.854;2023-07-22T06:51:51;5.57;;;2.75;;
2452;SDS011;63678;47.994;7.854;2023-07-22T06:54:23;6.07;;;2.78;;
2452;SDS011;63678;47.994;7.854;2023-07-22T06:56:56;5.13;;;2.20;;
2452;SDS011;63678;47.994;7.854;2023-07-22T06:59:29;5.23;;;2.33;;
2452;SDS011;63678;47.994;7.854;2023-07-22T07:02:03;4.85;;;2.38;;
2452;SDS011;63678;47.994;7.854;2023-07-22T07:04:36;4.70;;;2.22;;
2452;SDS011;63678;47.994;7.854;2023-07-22T07:07:09;5.47;;;2.40;;
2452;SDS011;63678;47.994;7.854;2023-07-22T07:09:41;5.68;;;2.40;;
2452;SDS011;63678;47.994;7.854;2023-07-22T07:12:14;4.70;;;2.17;;
2452;SDS011;63678;47.994;7.854;2023-07-22T07:14:46;5.50;;;2.60;;
2452;SDS011;63678;47.994;7.854;2023-07-22T07:17:23;5.38;;;2.30;;
2452;SDS011;63678;47.994;7.854;2023-07-22T07:19:59;4.93;;;2.20;;
2452;SDS011;63678;47.994;7.854;2023-07-22T07:22:31;5.40;;;2.80;;
2452;SDS011;63678;47.994;7.854;2023-07-22T07:25:04;7.33;;;2.70;;
2452;SDS011;63678;47.994;7.854;2023-07-22T07:27:37;4.47;;;2.10;;
2452;SDS011;63678;47.994;7.854;2023-07-22T07:30:09;6.28;;;2.30;;
2452;SDS011;63678;47.994;7.854;2023-07-22T07:32:42;4.90;;;2.42;;
2452;SDS011;63678;47.994;7.854;2023-07-22T07:35:14;8.88;;;2.70;;
2452;SDS011;63678;47.994;7.854;2023-07-22T07:37:47;5.60;;;2.50;;
2452;SDS011;63678;47.994;7.854;2023-07-22T07:40:19;5.35;;;2.30;;
2452;SDS011;63678;47.994;7.854;2023-07-22T07:42:51;6.15;;;2.55;;
2452;SDS011;63678;47.994;7.854;2023-07-22T07:45:24;7.00;;;2.90;;
2452;SDS011;63678;47.994;7.854;2023-07-22T07:47:57;5.50;;;2.70;;
2452;SDS011;63678;47.994;7.854;2023-07-22T07:50:29;6.53;;;2.90;;
2452;SDS011;63678;47.994;7.854;2023-07-22T07:53:02;6.57;;;2.50;;
2452;SDS011;63678;47.994;7.854;2023-07-22T07:55:34;5.57;;;3.03;;
2452;SDS011;63678;47.994;7.854;2023-07-22T07:58:06;6.72;;;2.75;;
2452;SDS011;63678;47.994;7.854;2023-07-22T08:00:39;6.32;;;3.00;;
2452;SDS011;63678;47.994;7.854;2023-07-22T08:03:11;7.60;;;2.97;;
2452;SDS011;63678;47.994;7.854;2023-07-22T08:05:44;5.57;;;2.80;;
2452;SDS011;63678;47.994;7.854;2023-07-22T08:08:39;4.75;;;2.47;;
2452;SDS011;63678;47.994;7.854;2023-07-22T08:11:12;5.63;;;2.72;;
2452;SDS011;63678;47.994;7.854;2023-07-22T08:13:46;5.00;;;2.50;;
2452;SDS011;63678;47.994;7.854;2023-07-22T08:16:19;5.13;;;2.40;;
2452;SDS011;63678;47.994;7.854;2023-07-22T08:18:51;5.88;;;2.70;;
2452;SDS011;63678;47.994;7.854;2023-07-22T08:21:24;5.28;;;2.78;;
2452;SDS011;63678;47.994;7.854;2023-07-22T08:23:57;4.80;;;2.47;;
2452;SDS011;63678;47.994;7.854;2023-07-22T08:26:29;5.70;;;2.72;;
2452;SDS011;63678;47.994;7.854;2023-07-22T08:29:02;5.10;;;2.40;;
2452;SDS011;63678;47.994;7.854;2023-07-22T08:31:36;5.10;;;2.67;;
2452;SDS011;63678;47.994;7.854;2023-07-22T08:34:08;7.80;;;2.92;;
2452;SDS011;63678;47.994;7.854;2023-07-22T08:36:41;4.90;;;2.30;;
2452;SDS011;63678;47.994;7.854;2023-07-22T08:39:13;5.78;;;2.60;;
2452;SDS011;63678;47.994;7.854;2023-07-22T08:41:48;7.27;;;2.30;;
2452;SDS011;63678;47.994;7.854;2023-07-22T08:44:24;8.18;;;2.47;;
2452;SDS011;63678;47.994;7.854;2023-07-22T08:46:59;10.27;;;2.40;;
2452;SDS011;63678;47.994;7.854;2023-07-22T08:49:35;4.63;;;2.30;;
2452;SDS011;63678;47.994;7.854;2023-07-22T08:52:08;5.20;;;2.28;;
2452;SDS011;63678;47.994;7.854;2023-07-22T08:54:42;5.13;;;2.30;;
2452;SDS011;63678;47.994;7.854;2023-07-22T08:57:16;5.00;;;2.33;;
2452;SDS011;63678;47.994;7.854;2023-07-22T08:59:50;6.75;;;2.42;;
2452;SDS011;63678;47.994;7.854;2023-07-22T09:02:24;4.70;;;2.42;;
2452;SDS011;63678;47.994;7.854;2023-07-22T09:04:57;6.63;;;2.60;;
2452;SDS011;63678;47.994;7.854;2023-07-22T09:07:32;4.60;;;2.23;;
2452;SDS011;63678;47.994;7.854;2023-07-22T09:10:06;4.53;;;2.10;;
2452;SDS011;63678;47.994;7.854;2023-07-22T09:12:41;4.20;;;2.10;;
2452;SDS011;63678;47.994;7.854;2023-07-22T09:15:14;6.18;;;2.60;;
2452;SDS011;63678;47.994;7.854;2023-07-22T09:17:47;4.45;;;2.30;;
2452;SDS011;63678;47.994;7.854;2023-07-22T09:20:20;4.40;;;2.10;;
2452;SDS011;63678;47.994;7.854;2023-07-22T09:22:53;5.07;;;2.30;;
2452;SDS011;63678;47.994;7.854;2023-07-22T09:25:43;4.78;;;2.45;;
2452;SDS011;63678;47.994;7.854;2023-07-22T09:28:16;7.18;;;2.42;;
2452;SDS011;63678;47.994;7.854;2023-07-22T09:30:48;7.63;;;2.33;;
2452;SDS011;63678;47.994;7.854;2023-07-22T09:33:21;4.93;;;1.90;;
2452;SDS011;63678;47.994;7.854;2023-07-22T09:35:54;5.53;;;2.40;;
2452;SDS011;63678;47.994;7.854;2023-07-22T09:38:27;5.28;;;2.40;;
2452;SDS011;63678;47.994;7.854;2023-07-22T09:40:59;5.00;;;2.60;;
2452;SDS011;63678;47.994;7.854;2023-07-22T09:43:35;4.40;;;2.00;;
2452;SDS011;63678;47.994;7.854;2023-07-22T09:46:10;4.17;;;2.20;;
2452;SDS011;63678;47.994;7.854;2023-07-22T09:48:45;4.60;;;2.03;;
2452;SDS011;63678;47.994;7.854;2023-07-22T09:51:18;4.20;;;2.17;;
2452;SDS011;63678;47.994;7.854;2023-07-22T09:54:00;4.47;;;1.80;;
2452;SDS011;63678;47.994;7.854;2023-07-22T09:56:44;5.95;;;2.35;;
2452;SDS011;63678;47.994;7.854;2023-07-22T09:59:20;5.27;;;2.00;;
2452;SDS011;63678;47.994;7.854;2023-07-22T10:01:55;4.25;;;1.98;;
2452;SDS011;63678;47.994;7.854;2023-07-22T10:04:31;5.47;;;2.28;;
2452;SDS011;63678;47.994;7.854;2023-07-22T10:07:06;7.10;;;2.47;;
2452;SDS011;63678;47.994;7.854;2023-07-22T10:09:42;5.57;;;1.95;;
2452;SDS011;63678;47.994;7.854;2023-07-22T10:12:15;6.87;;;2.10;;
2452;SDS011;63678;47.994;7.854;2023-07-22T10:14:47;5.13;;;2.00;;
2452;SDS011;63678;47.994;7.854;2023-07-22T10:17:21;9.02;;;2.63;;
2452;SDS011;63678;47.994;7.854;2023-07-22T10:19:56;5.75;;;2.45;;
2452;SDS011;63678;47.994;7.854;2023-07-22T10:22:29;5.53;;;2.42;;
2452;SDS011;63678;47.994;7.854;2023-07-22T10:25:04;4.53;;;2.30;;
2452;SDS011;63678;47.994;7.854;2023-07-22T10:27:39;4.68;;;2.17;;
2452;SDS011;63678;47.994;7.854;2023-07-22T10:30:13;5.05;;;2.35;;
2452;SDS011;63678;47.994;7.854;2023-07-22T10:32:49;5.60;;;2.45;;
2452;SDS011;63678;47.994;7.854;2023-07-22T10:38:07;4.47;;;2.00;;
2452;SDS011;63678;47.994;7.854;2023-07-22T10:41:04;4.80;;;2.40;;
2452;SDS011;63678;47.994;7.854;2023-07-22T10:43:53;5.07;;;2.30;;
2452;SDS011;63678;47.994;7.854;2023-07-22T10:46:31;5.32;;;2.17;;
2452;SDS011;63678;47.994;7.854;2023-07-22T10:49:10;5.45;;;2.22;;
2452;SDS011;63678;47.994;7.854;2023-07-22T10:51:49;5.00;;;2.30;;
2452;SDS011;63678;47.994;7.854;2023-07-22T10:54:33;4.35;;;2.10;;
2452;SDS011;63678;47.994;7.854;2023-07-22T10:57:28;5.93;;;2.08;;
2452;SDS011;63678;47.994;7.854;2023-07-22T11:00:00;5.38;;;2.60;;
2452;SDS011;63678;47.994;7.854;2023-07-22T11:02:33;5.63;;;2.72;;
2452;SDS011;63678;47.994;7.854;2023-07-22T11:05:05;4.70;;;2.43;;
2452;SDS011;63678;47.994;7.854;2023-07-22T11:07:44;5.18;;;2.63;;
2452;SDS011;63678;47.994;7.854;2023-07-22T11:10:19;4.70;;;2.53;;
2452;SDS011;63678;47.994;7.854;2023-07-22T11:12:51;4.78;;;2.30;;
2452;SDS011;63678;47.994;7.854;2023-07-22T11:15:27;6.82;;;2.72;;
2452;SDS011;63678;47.994;7.854;2023-07-22T11:18:01;5.77;;;2.37;;
2452;SDS011;63678;47.994;7.854;2023-07-22T11:20:33;5.82;;;2.85;;
2452;SDS011;63678;47.994;7.854;2023-07-22T11:23:06;5.15;;;2.40;;
2452;SDS011;63678;47.994;7.854;2023-07-22T11:25:39;5.28;;;2.72;;
2452;SDS011;63678;47.994;7.854;2023-07-22T11:28:13;5.13;;;2.40;;
2452;SDS011;63678;47.994;7.854;2023-07-22T11:30:46;6.97;;;3.10;;
2452;SDS011;63678;47.994;7.854;2023-07-22T11:33:19;5.53;;;2.63;;
2452;SDS011;63678;47.994;7.854;2023-07-22T11:35:52;4.90;;;2.30;;
2452;SDS011;63678;47.994;7.854;2023-07-22T11:38:24;6.82;;;2.42;;
2452;SDS011;63678;47.994;7.854;2023-07-22T11:40:57;5.90;;;2.50;;
2452;SDS011;63678;47.994;7.854;2023-07-22T11:43:31;5.67;;;2.60;;
2452;SDS011;63678;47.994;7.854;2023-07-22T11:46:07;7.00;;;2.40;;
2452;SDS011;63678;47.994;7.854;2023-07-22T11:48:39;5.22;;;2.72;;
2452;SDS011;63678;47.994;7.854;2023-07-22T11:51:25;6.55;;;2.40;;
2452;SDS011;63678;47.994;7.854;2023-07-22T11:53:58;5.35;;;2.60;;
2452;SDS011;63678;47.994;7.854;2023-07-22T11:56:30;6.27;;;2.93;;
2452;SDS011;63678;47.994;7.854;2023-07-22T11:59:04;8.45;;;3.20;;
2452;SDS011;63678;47.994;7.854;2023-07-22T12:01:36;5.13;;;2.53;;
2452;SDS011;63678;47.994;7.854;2023-07-22T12:04:10;5.07;;;2.55;;
2452;SDS011;63678;47.994;7.854;2023-07-22T12:06:44;4.70;;;2.38;;
2452;SDS011;63678;47.994;7.854;2023-07-22T12:09:17;5.30;;;2.40;;
2452;SDS011;63678;47.994;7.854;2023-07-22T12:11:54;4.95;;;2.40;;
2452;SDS011;63678;47.994;7.854;2023-07-22T12:14:33;5.43;;;2.80;;
2452;SDS011;63678;47.994;7.854;2023-07-22T12:17:10;5.40;;;2.70;;
2452;SDS011;63678;47.994;7.854;2023-07-22T12:19:52;4.80;;;2.40;;
2452;SDS011;63678;47.994;7.854;2023-07-22T12:22:28;6.73;;;2.97;;
2452;SDS011;63678;47.994;7.854;2023-07-22T12:25:00;4.10;;;2.35;;
2452;SDS011;63678;47.994;7.854;2023-07-22T12:27:36;6.10;;;2.80;;
2452;SDS011;63678;47.994;7.854;2023-07-22T12:30:09;5.45;;;2.40;;
2452;SDS011;63678;47.994;7.854;2023-07-22T12:32:42;4.60;;;2.40;;
2452;SDS011;63678;47.994;7.854;2023-07-22T12:35:15;4.67;;;2.40;;
2452;SDS011;63678;47.994;7.854;2023-07-22T12:37:47;5.47;;;2.40;;
2452;SDS011;63678;47.994;7.854;2023-07-22T12:40:20;4.90;;;2.45;;
2452;SDS011;63678;47.994;7.854;2023-07-22T12:42:53;4.75;;;2.65;;
2452;SDS011;63678;47.994;7.854;2023-07-22T12:45:26;4.88;;;2.40;;
2452;SDS011;63678;47.994;7.854;2023-07-22T12:47:58;5.50;;;2.57;;
2452;SDS011;63678;47.994;7.854;2023-07-22T12:50:31;4.32;;;2.25;;
2452;SDS011;63678;47.994;7.854;2023-07-22T12:53:04;5.25;;;2.50;;
2452;SDS011;63678;47.994;7.854;2023-07-22T12:55:37;5.85;;;2.90;;
2452;SDS011;63678;47.994;7.854;2023-07-22T12:58:09;5.50;;;2.70;;
2452;SDS011;63678;47.994;7.854;2023-07-22T13:00:42;6.87;;;2.40;;
2452;SDS011;63678;47.994;7.854;2023-07-22T13:03:14;4.07;;;2.28;;
2452;SDS011;63678;47.994;7.854;2023-07-22T13:05:47;6.10;;;2.53;;
2452;SDS011;63678;47.994;7.854;2023-07-22T13:08:20;4.80;;;2.50;;
2452;SDS011;63678;47.994;7.854;2023-07-22T13:10:52;4.75;;;2.42;;
2452;SDS011;63678;47.994;7.854;2023-07-22T13:13:25;4.87;;;2.27;;
2452;SDS011;63678;47.994;7.854;2023-07-22T13:15:57;4.75;;;2.45;;
2452;SDS011;63678;47.994;7.854;2023-07-22T13:18:30;6.13;;;2.60;;
2452;SDS011;63678;47.994;7.854;2023-07-22T13:21:03;5.55;;;2.47;;
2452;SDS011;63678;47.994;7.854;2023-07-22T13:23:35;4.65;;;2.60;;
2452;SDS011;63678;47.994;7.854;2023-07-22T13:26:08;4.60;;;2.43;;
2452;SDS011;63678;47.994;7.854;2023-07-22T13:28:40;5.00;;;2.60;;
2452;SDS011;63678;47.994;7.854;2023-07-22T13:31:12;6.10;;;2.85;;
2452;SDS011;63678;47.994;7.854;2023-07-22T13:33:45;6.22;;;2.90;;
2452;SDS011;63678;47.994;7.854;2023-07-22T13:36:17;5.30;;;2.95;;
2452;SDS011;63678;47.994;7.854;2023-07-22T13:38:50;5.43;;;2.53;;
2452;SDS011;63678;47.994;7.854;2023-07-22T13:41:23;5.50;;;2.58;;
2452;SDS011;63678;47.994;7.854;2023-07-22T13:43:56;5.13;;;2.70;;
2452;SDS011;63678;47.994;7.854;2023-07-22T13:46:28;4.95;;;2.60;;
2452;SDS011;63678;47.994;7.854;2023-07-22T13:49:00;6.35;;;2.67;;
2452;SDS011;63678;47.994;7.854;2023-07-22T13:51:33;5.57;;;2.70;;
2452;SDS011;63678;47.994;7.854;2023-07-22T13:54:06;5.68;;;3.20;;
2452;SDS011;63678;47.994;7.854;2023-07-22T13:56:38;5.50;;;2.95;;
2452;SDS011;63678;47.994;7.854;2023-07-22T13:59:11;5.22;;;2.75;;
2452;SDS011;63678;47.994;7.854;2023-07-22T14:01:43;5.88;;;2.92;;
2452;SDS011;63678;47.994;7.854;2023-07-22T14:04:15;5.07;;;2.90;;
2452;SDS011;63678;47.994;7.854;2023-07-22T14:06:48;5.60;;;2.60;;
2452;SDS011;63678;47.994;7.854;2023-07-22T14:09:20;5.13;;;2.70;;
2452;SDS011;63678;47.994;7.854;2023-07-22T14:11:53;4.93;;;2.47;;
2452;SDS011;63678;47.994;7.854;2023-07-22T14:14:25;5.82;;;2.40;;
2452;SDS011;63678;47.994;7.854;2023-07-22T14:17:00;6.67;;;3.00;;
2452;SDS011;63678;47.994;7.854;2023-07-22T14:19:33;5.57;;;2.45;;
2452;SDS011;63678;47.994;7.854;2023-07-22T14:22:06;5.53;;;2.53;;
2452;SDS011;63678;47.994;7.854;2023-07-22T14:24:38;5.25;;;2.80;;
2452;SDS011;63678;47.994;7.854;2023-07-22T14:27:11;5.82;;;2.40;;
2452;SDS011;63678;47.994;7.854;2023-07-22T14:29:43;4.57;;;2.40;;
2452;SDS011;63678;47.994;7.854;2023-07-22T14:32:15;3.90;;;2.00;;
2452;SDS011;63678;47.994;7.854;2023-07-22T14:34:48;4.80;;;2.72;;
2452;SDS011;63678;47.994;7.854;2023-07-22T14:37:22;4.88;;;2.20;;
2452;SDS011;63678;47.994;7.854;2023-07-22T14:39:54;4.82;;;2.55;;
2452;SDS011;63678;47.994;7.854;2023-07-22T14:42:27;7.60;;;2.43;;
2452;SDS011;63678;47.994;7.854;2023-07-22T14:44:59;4.95;;;2.88;;
2452;SDS011;63678;47.994;7.854;2023-07-22T14:47:32;4.85;;;2.30;;
2452;SDS011;63678;47.994;7.854;2023-07-22T14:50:06;6.03;;;2.67;;
2452;SDS011;63678;47.994;7.854;2023-07-22T14:52:39;4.85;;;2.17;;
2452;SDS011;63678;47.994;7.854;2023-07-22T14:55:12;4.43;;;2.40;;
2452;SDS011;63678;47.994;7.854;2023-07-22T14:57:44;6.78;;;2.40;;
2452;SDS011;63678;47.994;7.854;2023-07-22T15:00:18;4.68;;;2.60;;
2452;SDS011;63678;47.994;7.854;2023-07-22T15:02:51;5.40;;;2.55;;
2452;SDS011;63678;47.994;7.854;2023-07-22T15:05:23;5.60;;;2.20;;
2452;SDS011;63678;47.994;7.854;2023-07-22T15:07:56;4.67;;;2.23;;
2452;SDS011;63678;47.994;7.854;2023-07-22T15:10:29;4.30;;;2.10;;
2452;SDS011;63678;47.994;7.854;2023-07-22T15:13:01;4.93;;;2.38;;
2452;SDS011;63678;47.994;7.854;2023-07-22T15:15:34;5.20;;;2.50;;
2452;SDS011;63678;47.994;7.854;2023-07-22T15:18:07;4.80;;;2.42;;
2452;SDS011;63678;47.994;7.854;2023-07-22T15:20:39;6.20;;;2.80;;
2452;SDS011;63678;47.994;7.854;2023-07-22T15:23:12;5.15;;;2.40;;
2452;SDS011;63678;47.994;7.854;2023-07-22T15:25:44;6.60;;;2.53;;
2452;SDS011;63678;47.994;7.854;2023-07-22T15:28:17;5.78;;;2.42;;
2452;SDS011;63678;47.994;7.854;2023-07-22T15:30:50;6.65;;;2.40;;
2452;SDS011;63678;47.994;7.854;2023-07-22T15:33:22;5.73;;;2.80;;
2452;SDS011;63678;47.994;7.854;2023-07-22T15:35:55;6.10;;;2.55;;
2452;SDS011;63678;47.994;7.854;2023-07-22T15:38:27;6.25;;;2.55;;
2452;SDS011;63678;47.994;7.854;2023-07-22T15:40:59;7.40;;;2.97;;